Time;durP1;ratioP1;P1;durP2;ratioP2;P2;SDS_P1;SDS_P2;PMS_P1;PMS_P2;Temp;Humidity;BMP_temperature;BMP_pressure;BME280_temperature;BME280_humidity;BME280_pressure;Samples;Min_cycle;Max_cycle;Signal;HPM_P1;HPM_P2
2021/05/03 00:00:37;;;;;;;13.95;3.67;;;6.40;99.90;;;;;;5011866;28;20037;-84
2021/05/03 00:03:03;;;;;;;18.88;3.03;;;6.40;99.90;;;;;;5010709;28;20033;-85
2021/05/03 00:05:29;;;;;;;20.55;3.35;;;6.40;99.90;;;;;;5011312;28;20108;-84
2021/05/03 00:07:55;;;;;;;18.90;4.20;;;6.40;99.90;;;;;;5010646;28;20030;-84
2021/05/03 00:10:22;;;;;;;15.75;2.78;;;6.40;99.90;;;;;;5012010;28;20148;-85
2021/05/03 00:12:47;;;;;;;12.35;2.80;;;6.40;99.90;;;;;;5011779;28;20026;-84
2021/05/03 00:15:15;;;;;;;16.20;3.70;;;6.50;99.90;;;;;;5009782;28;20045;-84
2021/05/03 00:17:40;;;;;;;48.20;4.05;;;6.40;99.90;;;;;;5010600;28;20117;-84
2021/05/03 00:20:07;;;;;;;10.40;2.60;;;6.50;99.90;;;;;;5010756;28;20117;-84
2021/05/03 00:22:33;;;;;;;22.08;4.90;;;6.50;99.90;;;;;;5026836;28;20120;-85
2021/05/03 00:24:59;;;;;;;13.98;3.33;;;6.50;99.90;;;;;;5011257;28;20022;-85
2021/05/03 00:27:24;;;;;;;6.50;2.45;;;6.40;99.90;;;;;;5014153;28;20116;-85
2021/05/03 00:29:50;;;;;;;12.57;2.20;;;6.50;99.90;;;;;;5014820;28;20045;-85
2021/05/03 00:32:15;;;;;;;11.52;2.92;;;6.50;99.90;;;;;;5015653;28;20642;-84
2021/05/03 00:34:41;;;;;;;16.40;2.90;;;6.50;99.90;;;;;;5015114;28;20029;-84
2021/05/03 00:37:06;;;;;;;23.27;3.85;;;6.50;99.90;;;;;;5014462;28;20092;-84
2021/05/03 00:39:32;;;;;;;16.90;2.20;;;6.50;99.90;;;;;;5015612;28;20058;-84
2021/05/03 00:41:58;;;;;;;9.50;2.40;;;6.50;99.90;;;;;;5014287;28;20022;-84
2021/05/03 00:44:26;;;;;;;18.63;3.10;;;6.50;99.90;;;;;;5014933;28;20091;-84
2021/05/03 00:46:55;;;;;;;20.55;2.40;;;6.50;99.90;;;;;;5014152;28;20018;-84
2021/05/03 00:49:21;;;;;;;19.60;2.88;;;6.50;99.90;;;;;;5014229;28;20032;-85
2021/05/03 00:51:47;;;;;;;11.40;2.95;;;6.50;99.90;;;;;;5015344;28;20029;-85
2021/05/03 00:54:12;;;;;;;10.43;2.63;;;6.50;99.90;;;;;;5014494;28;20206;-84
2021/05/03 00:56:38;;;;;;;10.45;2.75;;;6.50;99.90;;;;;;5015247;28;20030;-84
2021/05/03 00:59:04;;;;;;;11.13;2.72;;;6.50;99.90;;;;;;5013179;28;20025;-85
2021/05/03 01:01:29;;;;;;;15.57;2.95;;;6.50;99.90;;;;;;5015032;28;20026;-84
2021/05/03 01:03:55;;;;;;;20.60;3.45;;;6.50;99.90;;;;;;5014505;28;20057;-84
2021/05/03 01:06:21;;;;;;;19.05;3.30;;;6.50;99.90;;;;;;5014864;28;20406;-85
2021/05/03 01:08:46;;;;;;;10.75;2.25;;;6.50;99.90;;;;;;5015117;28;20394;-85
2021/05/03 01:11:12;;;;;;;10.43;2.80;;;6.50;99.90;;;;;;5008878;28;20034;-84
2021/05/03 01:13:39;;;;;;;18.05;2.63;;;6.50;99.90;;;;;;4994379;28;20478;-85
2021/05/03 01:16:05;;;;;;;18.13;3.85;;;6.50;99.90;;;;;;4995019;28;20113;-84
2021/05/03 01:18:34;;;;;;;5.28;2.70;;;6.50;99.90;;;;;;4995163;28;20102;-84
2021/05/03 01:21:00;;;;;;;22.95;3.58;;;6.50;99.90;;;;;;4994117;28;20390;-85
2021/05/03 01:23:26;;;;;;;12.77;2.47;;;6.40;99.90;;;;;;4993844;28;20026;-84
2021/05/03 01:25:52;;;;;;;9.40;2.10;;;6.40;99.90;;;;;;4993188;28;20030;-84
2021/05/03 01:28:18;;;;;;;10.57;2.72;;;6.40;99.90;;;;;;4994908;28;20026;-84
2021/05/03 01:30:45;;;;;;;10.18;2.72;;;6.30;99.90;;;;;;4993845;28;20483;-84
2021/05/03 01:33:13;;;;;;;7.97;2.53;;;6.30;99.90;;;;;;4994784;28;20034;-84
2021/05/03 01:35:41;;;;;;;11.23;2.70;;;6.30;99.90;;;;;;4994077;28;20030;-84
2021/05/03 01:38:07;;;;;;;7.35;2.03;;;6.30;99.90;;;;;;4993205;28;20069;-84
2021/05/03 01:40:37;;;;;;;8.25;2.50;;;6.20;99.90;;;;;;4994852;28;20106;-84
2021/05/03 01:43:15;;;;;;;15.30;2.50;;;6.30;99.90;;;;;;4993376;28;20113;-83
2021/05/03 01:45:41;;;;;;;10.85;2.30;;;6.30;99.90;;;;;;4992772;28;20026;-84
2021/05/03 01:48:09;;;;;;;11.52;2.35;;;6.20;99.90;;;;;;4993768;28;20113;-84
2021/05/03 01:50:35;;;;;;;13.45;2.80;;;6.20;99.90;;;;;;4994434;28;20027;-84
2021/05/03 01:53:03;;;;;;;8.50;2.03;;;6.20;99.90;;;;;;4994539;28;20022;-84
2021/05/03 01:55:29;;;;;;;10.27;2.10;;;6.20;99.90;;;;;;5008357;28;20030;-84
2021/05/03 01:57:55;;;;;;;6.50;2.20;;;6.10;99.90;;;;;;5012694;28;20394;-84
2021/05/03 02:00:20;;;;;;;13.68;2.63;;;6.10;99.90;;;;;;5014091;28;20037;-84
2021/05/03 02:02:48;;;;;;;12.90;2.70;;;6.10;99.90;;;;;;5014148;28;20022;-84
2021/05/03 02:05:21;;;;;;;9.00;2.22;;;6.10;99.90;;;;;;5013343;28;20376;-84
2021/05/03 02:07:58;;;;;;;16.70;2.75;;;6.10;99.90;;;;;;5014226;28;20026;-84
2021/05/03 02:10:24;;;;;;;8.68;2.78;;;6.10;99.90;;;;;;5014020;28;20026;-84
2021/05/03 02:12:50;;;;;;;6.32;2.60;;;6.10;99.90;;;;;;5013433;28;20041;-83
2021/05/03 02:15:15;;;;;;;10.18;3.92;;;6.10;99.90;;;;;;5011903;28;20029;-84
2021/05/03 02:17:41;;;;;;;18.38;3.28;;;6.20;99.90;;;;;;5012438;28;20113;-84
2021/05/03 02:20:07;;;;;;;8.38;2.70;;;6.20;99.90;;;;;;5028880;28;20033;-84
2021/05/03 02:22:32;;;;;;;9.32;2.60;;;6.20;99.90;;;;;;5013244;28;20068;-84
2021/05/03 02:24:58;;;;;;;9.32;2.85;;;6.20;99.90;;;;;;5013131;28;20022;-84
2021/05/03 02:27:24;;;;;;;9.05;2.47;;;6.20;99.90;;;;;;5028644;28;20036;-84
2021/05/03 02:29:49;;;;;;;30.77;3.78;;;6.20;99.90;;;;;;5013348;28;20101;-84
2021/05/03 02:32:15;;;;;;;8.80;2.53;;;6.20;99.90;;;;;;5012280;28;20022;-84
2021/05/03 02:34:40;;;;;;;10.68;2.20;;;6.20;99.90;;;;;;5027975;28;20033;-83
2021/05/03 02:37:06;;;;;;;10.07;2.25;;;6.20;99.90;;;;;;5013143;28;20064;-84
2021/05/03 02:39:32;;;;;;;9.63;2.35;;;6.20;99.90;;;;;;5013256;28;20566;-83
2021/05/03 02:41:58;;;;;;;7.45;2.83;;;6.20;99.90;;;;;;5011501;28;20515;-84
2021/05/03 02:44:23;;;;;;;6.72;2.30;;;6.20;99.90;;;;;;5011345;28;20030;-84
2021/05/03 02:46:49;;;;;;;9.77;2.33;;;6.10;99.90;;;;;;5012824;28;20128;-85
2021/05/03 02:49:15;;;;;;;14.23;2.47;;;6.10;99.90;;;;;;5011248;28;20137;-84
2021/05/03 02:51:41;;;;;;;11.57;3.47;;;6.10;99.90;;;;;;5012905;28;20061;-84
2021/05/03 02:54:07;;;;;;;9.65;2.70;;;6.10;99.90;;;;;;5012198;28;20022;-85
2021/05/03 02:56:33;;;;;;;9.85;2.65;;;6.00;99.90;;;;;;5012907;28;20030;-84
2021/05/03 02:58:58;;;;;;;11.02;2.53;;;6.00;99.90;;;;;;5011725;28;20026;-84
2021/05/03 03:01:24;;;;;;;10.77;2.50;;;6.00;99.90;;;;;;5012995;28;20133;-84
2021/05/03 03:03:49;;;;;;;11.45;2.78;;;5.90;99.90;;;;;;5012548;28;20028;-84
2021/05/03 03:06:15;;;;;;;9.85;2.38;;;5.90;99.90;;;;;;5012889;28;20030;-84
2021/05/03 03:08:40;;;;;;;12.18;3.17;;;5.90;99.90;;;;;;5011388;28;20044;-84
2021/05/03 03:11:06;;;;;;;15.27;3.83;;;5.90;99.90;;;;;;5012802;28;20100;-84
2021/05/03 03:13:31;;;;;;;6.03;2.63;;;5.90;99.90;;;;;;5012598;28;20026;-85
2021/05/03 03:15:57;;;;;;;9.68;2.45;;;5.80;99.90;;;;;;5011009;28;20026;-84
2021/05/03 03:18:23;;;;;;;13.43;2.38;;;5.80;99.90;;;;;;5011727;28;20030;-86
2021/05/03 03:20:48;;;;;;;7.65;3.08;;;5.80;99.90;;;;;;5011508;28;20029;-85
2021/05/03 03:23:14;;;;;;;15.45;2.92;;;5.80;99.90;;;;;;5011214;28;20084;-85
2021/05/03 03:25:40;;;;;;;13.02;3.00;;;5.70;99.90;;;;;;5010579;28;20041;-85
2021/05/03 03:28:07;;;;;;;2.33;1.88;;;5.70;99.90;;;;;;5011201;28;20067;-85
2021/05/03 03:30:33;;;;;;;5.13;2.25;;;5.60;99.90;;;;;;5012627;28;20061;-86
2021/05/03 03:32:58;;;;;;;14.13;4.97;;;5.60;99.90;;;;;;5011130;28;20522;-85
2021/05/03 03:35:25;;;;;;;10.30;2.22;;;5.50;99.90;;;;;;5010485;28;20029;-85
2021/05/03 03:37:52;;;;;;;6.10;2.10;;;5.50;99.90;;;;;;5011226;28;20026;-85
2021/05/03 03:40:18;;;;;;;13.63;3.90;;;5.50;99.90;;;;;;5012376;28;20099;-85
2021/05/03 03:42:44;;;;;;;16.55;2.60;;;5.40;99.90;;;;;;5010944;28;20065;-85
2021/05/03 03:45:11;;;;;;;7.15;2.55;;;5.40;99.90;;;;;;5010451;28;20025;-85
2021/05/03 03:47:37;;;;;;;8.00;2.72;;;5.30;99.90;;;;;;5012371;28;20498;-86
2021/05/03 03:50:04;;;;;;;12.23;2.63;;;5.30;99.90;;;;;;5010972;28;20034;-86
2021/05/03 03:52:30;;;;;;;5.60;3.28;;;5.30;99.90;;;;;;5010813;28;20032;-85
2021/05/03 03:54:56;;;;;;;19.58;4.30;;;5.20;99.90;;;;;;5010087;28;20507;-85
2021/05/03 03:57:21;;;;;;;6.53;2.58;;;5.20;99.90;;;;;;5010826;28;20026;-85
2021/05/03 03:59:52;;;;;;;13.40;3.22;;;5.20;99.90;;;;;;5011922;28;20129;-85
2021/05/03 04:02:17;;;;;;;11.60;2.72;;;5.20;99.90;;;;;;5012165;28;20018;-85
2021/05/03 04:04:50;;;;;;;10.23;2.72;;;5.20;99.90;;;;;;5011326;28;20052;-85
2021/05/03 04:07:27;;;;;;;5.65;2.58;;;5.10;99.90;;;;;;5010746;28;20026;-85
2021/05/03 04:12:43;;;;;;;10.65;3.20;;;5.00;99.90;;;;;;5007531;28;20045;-86
2021/05/03 04:25:58;;;;;;;8.35;2.78;;;4.80;99.90;;;;;;4991759;28;20069;-85
2021/05/03 04:28:24;;;;;;;4.15;2.58;;;4.80;99.90;;;;;;4992225;28;20026;-86
2021/05/03 04:30:49;;;;;;;14.90;2.92;;;4.90;99.90;;;;;;4992481;28;20026;-86
2021/05/03 04:33:15;;;;;;;5.85;2.55;;;5.00;99.90;;;;;;4992356;28;20483;-83
2021/05/03 04:35:41;;;;;;;11.02;2.47;;;5.10;99.90;;;;;;4990216;28;20514;-85
2021/05/03 04:38:06;;;;;;;5.70;2.55;;;5.10;99.90;;;;;;4991991;28;20022;-86
2021/05/03 04:40:32;;;;;;;11.63;2.35;;;5.10;99.90;;;;;;4992100;28;20061;-86
2021/05/03 04:42:57;;;;;;;8.75;2.75;;;5.10;99.90;;;;;;4992053;28;20082;-85
2021/05/03 04:45:23;;;;;;;3.80;2.15;;;5.10;99.90;;;;;;4991590;28;20034;-85
2021/05/03 04:47:48;;;;;;;6.60;1.67;;;5.10;99.90;;;;;;4991996;28;20594;-85
2021/05/03 04:50:14;;;;;;;3.25;2.28;;;5.20;99.90;;;;;;4992010;28;20066;-85
2021/05/03 04:52:40;;;;;;;5.57;1.83;;;5.30;99.90;;;;;;4992067;28;20040;-85
2021/05/03 04:55:07;;;;;;;7.15;2.20;;;5.40;99.90;;;;;;5002696;28;20026;-85
2021/05/03 04:57:33;;;;;;;6.57;2.00;;;5.30;99.90;;;;;;5011477;28;20073;-85
2021/05/03 04:59:58;;;;;;;5.30;1.58;;;5.40;99.90;;;;;;5011540;28;20018;-86
2021/05/03 05:02:24;;;;;;;9.18;3.22;;;5.50;99.90;;;;;;5011525;28;20041;-85
2021/05/03 05:04:50;;;;;;;9.90;2.10;;;5.50;99.90;;;;;;5009728;28;20521;-85
2021/05/03 05:07:18;;;;;;;10.38;2.10;;;5.60;99.90;;;;;;5011547;28;20030;-86
2021/05/03 05:09:44;;;;;;;8.25;2.45;;;5.70;99.90;;;;;;5025176;28;20030;-86
2021/05/03 05:12:09;;;;;;;11.93;2.70;;;5.80;99.90;;;;;;5012695;28;20033;-85
2021/05/03 05:14:35;;;;;;;4.68;2.03;;;5.80;99.90;;;;;;5013102;28;20076;-86
2021/05/03 05:17:01;;;;;;;7.03;2.55;;;5.80;99.90;;;;;;5013523;28;20026;-86
2021/05/03 05:19:27;;;;;;;13.68;2.45;;;5.90;99.90;;;;;;5013708;28;20037;-85
2021/05/03 05:21:53;;;;;;;11.05;2.53;;;6.00;99.90;;;;;;5014856;28;20026;-85
2021/05/03 05:24:19;;;;;;;16.45;2.53;;;6.10;99.90;;;;;;5012934;28;20025;-86
2021/05/03 05:26:44;;;;;;;7.78;2.25;;;6.10;99.90;;;;;;5013598;28;20109;-86
2021/05/03 05:29:10;;;;;;;7.75;1.92;;;6.20;99.90;;;;;;5013560;28;20022;-85
2021/05/03 05:31:35;;;;;;;7.07;2.03;;;6.40;99.90;;;;;;5014654;28;20056;-85
2021/05/03 05:34:01;;;;;;;10.52;2.10;;;6.50;99.90;;;;;;5013959;28;20026;-85
2021/05/03 05:36:27;;;;;;;3.00;1.73;;;6.50;99.90;;;;;;5014622;28;20036;-85
2021/05/03 05:38:52;;;;;;;11.85;2.53;;;6.50;99.90;;;;;;5014363;28;20014;-85
2021/05/03 05:41:19;;;;;;;8.18;1.98;;;6.60;99.90;;;;;;5029862;28;20026;-85
2021/05/03 05:43:45;;;;;;;5.22;1.98;;;6.70;99.90;;;;;;5012534;28;20046;-87
2021/05/03 05:46:11;;;;;;;4.20;1.70;;;6.80;99.90;;;;;;5013222;28;20062;-85
2021/05/03 05:48:36;;;;;;;12.23;2.42;;;6.80;99.90;;;;;;5013122;28;20026;-86
2021/05/03 05:51:03;;;;;;;9.40;1.80;;;7.00;99.90;;;;;;5014362;28;20104;-85
2021/05/03 05:53:33;;;;;;;14.23;1.73;;;7.20;99.90;;;;;;5014012;28;20026;-85
2021/05/03 05:55:59;;;;;;;10.82;2.00;;;7.30;99.90;;;;;;5012199;28;20030;-85
2021/05/03 05:58:25;;;;;;;9.63;2.25;;;7.40;99.90;;;;;;5029416;28;20018;-86
2021/05/03 06:00:50;;;;;;;6.05;1.10;;;7.50;99.90;;;;;;5012621;28;20143;-85
2021/05/03 06:03:16;;;;;;;3.92;1.17;;;7.60;99.90;;;;;;5013745;28;20022;-85
2021/05/03 06:05:42;;;;;;;6.75;1.77;;;7.50;99.90;;;;;;5013148;28;20053;-86
2021/05/03 06:08:08;;;;;;;6.97;1.30;;;7.60;99.90;;;;;;5029019;28;20029;-85
2021/05/03 06:10:33;;;;;;;8.88;1.60;;;7.60;99.90;;;;;;5028995;28;20505;-86
2021/05/03 06:12:59;;;;;;;3.17;1.08;;;7.60;99.90;;;;;;5013789;28;20040;-85
2021/05/03 06:15:24;;;;;;;10.43;1.55;;;7.60;99.90;;;;;;5028184;28;20121;-86
2021/05/03 06:17:50;;;;;;;4.72;1.40;;;7.60;99.90;;;;;;5013800;28;20057;-86
2021/05/03 06:20:15;;;;;;;1.95;1.33;;;7.70;99.90;;;;;;5013736;28;20038;-85
2021/05/03 06:22:41;;;;;;;2.75;1.35;;;7.90;99.90;;;;;;5011587;28;20030;-86
2021/05/03 06:25:08;;;;;;;3.63;1.98;;;8.00;99.90;;;;;;5027683;28;20114;-85
2021/05/03 06:27:34;;;;;;;3.13;1.40;;;8.10;99.90;;;;;;5013686;28;20022;-86
2021/05/03 06:29:59;;;;;;;3.50;1.75;;;8.10;99.90;;;;;;5013629;28;20100;-86
2021/05/03 06:32:26;;;;;;;5.28;1.38;;;8.20;99.90;;;;;;5028800;28;20116;-86
2021/05/03 06:34:52;;;;;;;8.18;1.70;;;8.20;99.90;;;;;;5028316;28;20095;-85
2021/05/03 06:37:17;;;;;;;3.55;1.33;;;8.20;99.90;;;;;;5013054;28;20030;-86
2021/05/03 06:39:43;;;;;;;3.13;1.33;;;8.20;99.90;;;;;;5028507;28;20026;-85
2021/05/03 06:42:08;;;;;;;3.05;1.48;;;8.20;99.90;;;;;;5012222;28;20017;-85
2021/05/03 06:44:34;;;;;;;7.88;3.45;;;7.90;99.90;;;;;;5012585;28;20101;-85
2021/05/03 06:47:03;;;;;;;3.00;1.35;;;7.80;99.90;;;;;;5013434;28;20157;-86
2021/05/03 06:49:28;;;;;;;3.45;1.10;;;7.80;99.90;;;;;;5028383;28;20026;-86
2021/05/03 06:51:54;;;;;;;3.25;1.52;;;7.80;99.90;;;;;;5028174;28;20045;-86
2021/05/03 06:54:20;;;;;;;3.15;1.38;;;7.90;99.90;;;;;;5025545;28;20026;-86
2021/05/03 06:56:45;;;;;;;5.75;1.38;;;8.20;99.90;;;;;;5012977;28;20030;-84
2021/05/03 06:59:11;;;;;;;4.60;1.02;;;8.40;99.90;;;;;;5013170;28;20026;-86
2021/05/03 07:01:37;;;;;;;7.95;1.17;;;8.70;99.90;;;;;;5013010;28;20070;-87
2021/05/03 07:04:03;;;;;;;3.33;1.20;;;8.90;99.90;;;;;;5011471;28;20037;-86
2021/05/03 07:06:28;;;;;;;6.35;1.10;;;8.80;99.90;;;;;;5012895;28;20030;-87
2021/05/03 07:08:54;;;;;;;9.68;1.30;;;8.50;99.90;;;;;;5011989;28;20113;-86
2021/05/03 07:11:22;;;;;;;6.00;1.35;;;8.40;99.90;;;;;;5010682;28;20160;-86
2021/05/03 07:13:47;;;;;;;5.25;1.38;;;8.10;99.90;;;;;;5001768;28;20021;-87
2021/05/03 07:16:13;;;;;;;6.10;1.90;;;7.80;99.90;;;;;;5011627;28;20092;-85
2021/05/03 07:18:41;;;;;;;6.32;1.45;;;7.70;99.90;;;;;;5028085;28;20041;-85
2021/05/03 07:21:07;;;;;;;3.03;1.10;;;7.70;99.90;;;;;;5028101;28;20061;-87
2021/05/03 07:23:33;;;;;;;12.50;1.85;;;8.00;99.90;;;;;;5012126;28;20062;-86
2021/05/03 07:25:59;;;;;;;4.75;1.30;;;8.40;99.90;;;;;;5012579;28;20041;-85
2021/05/03 07:28:25;;;;;;;18.02;3.17;;;8.90;99.90;;;;;;5012083;28;20026;-86
2021/05/03 07:30:57;;;;;;;1.55;0.90;;;9.10;99.90;;;;;;5011949;28;20529;-87
2021/05/03 07:33:23;;;;;;;5.38;1.10;;;9.30;99.90;;;;;;5012348;28;20026;-86
2021/05/03 07:35:49;;;;;;;6.82;1.30;;;9.30;99.90;;;;;;5010084;28;20375;-86
2021/05/03 07:38:14;;;;;;;3.85;1.20;;;9.20;99.90;;;;;;5011319;28;20029;-84
2021/05/03 07:40:40;;;;;;;3.67;0.80;;;9.00;99.90;;;;;;5012244;28;20482;-82
2021/05/03 07:43:05;;;;;;;3.25;1.25;;;9.10;99.90;;;;;;5012133;28;20025;-83
2021/05/03 07:45:31;;;;;;;3.90;1.48;;;9.50;99.90;;;;;;5011683;28;20022;-86
2021/05/03 07:47:56;;;;;;;3.03;1.23;;;9.80;99.90;;;;;;5012325;28;20026;-85
2021/05/03 07:50:22;;;;;;;6.03;1.02;;;10.10;99.90;;;;;;5002270;28;20034;-85
2021/05/03 07:52:47;;;;;;;3.20;1.20;;;10.00;99.90;;;;;;4992911;28;20026;-85
2021/05/03 07:55:14;;;;;;;3.00;0.88;;;9.60;99.90;;;;;;5001784;28;20037;-87
2021/05/03 07:57:40;;;;;;;1.67;0.98;;;9.20;99.90;;;;;;4992100;28;20402;-86
2021/05/03 08:00:06;;;;;;;3.25;1.25;;;8.70;99.90;;;;;;5007747;28;20053;-86
2021/05/03 08:02:32;;;;;;;8.48;1.00;;;8.50;99.90;;;;;;4992612;28;20487;-85
2021/05/03 08:04:58;;;;;;;16.25;1.08;;;8.10;99.90;;;;;;5004222;28;20062;-85
2021/05/03 08:07:24;;;;;;;2.45;1.13;;;8.00;99.90;;;;;;5009878;28;20116;-85
2021/05/03 08:09:49;;;;;;;2.05;1.42;;;8.10;99.90;;;;;;5008466;28;20026;-87
2021/05/03 08:12:16;;;;;;;3.35;1.08;;;8.70;99.90;;;;;;4991712;28;20117;-88
2021/05/03 08:14:42;;;;;;;1.77;0.90;;;9.40;99.90;;;;;;4991622;28;20022;-87
2021/05/03 08:17:11;;;;;;;2.17;0.82;;;9.90;99.90;;;;;;4991978;28;20037;-85
2021/05/03 08:19:37;;;;;;;1.00;0.88;;;10.10;99.90;;;;;;4992583;28;20023;-86
2021/05/03 08:22:03;;;;;;;6.80;0.90;;;10.00;99.90;;;;;;5005461;28;20034;-85
2021/05/03 08:24:30;;;;;;;2.05;0.80;;;9.50;99.90;;;;;;5010502;28;20028;-88
2021/05/03 08:26:59;;;;;;;4.15;1.35;;;8.70;99.90;;;;;;5003183;28;20030;-85
2021/05/03 08:29:25;;;;;;;1.40;0.90;;;8.20;99.90;;;;;;5012320;28;20100;-85
2021/05/03 08:31:51;;;;;;;1.48;0.98;;;7.90;99.90;;;;;;5010915;28;20553;-86
2021/05/03 08:34:16;;;;;;;5.18;1.52;;;7.90;99.90;;;;;;5010299;28;20124;-86
2021/05/03 08:36:42;;;;;;;0.88;0.82;;;7.70;99.90;;;;;;5009567;28;20032;-85
2021/05/03 08:39:08;;;;;;;1.70;1.20;;;7.60;99.90;;;;;;5010948;28;20029;-85
2021/05/03 08:41:34;;;;;;;4.10;1.08;;;7.50;99.90;;;;;;5004614;28;20029;-86
2021/05/03 08:44:00;;;;;;;2.05;1.25;;;7.60;99.90;;;;;;4992491;28;20029;-85
2021/05/03 08:46:31;;;;;;;8.20;1.40;;;7.80;99.90;;;;;;4997232;28;20073;-86
2021/05/03 08:54:10;;;;;;;3.15;1.00;;;9.90;99.90;;;;;;5005602;28;20096;-86
2021/05/03 08:56:36;;;;;;;4.07;1.08;;;10.00;99.90;;;;;;4996905;28;20037;-86
2021/05/03 08:59:02;;;;;;;4.57;1.10;;;10.00;99.90;;;;;;5005788;28;20394;-86
2021/05/03 09:01:28;;;;;;;5.88;1.33;;;10.40;99.90;;;;;;4995869;28;20018;-86
2021/05/03 09:03:55;;;;;;;12.02;1.02;;;10.60;99.90;;;;;;4999497;28;20096;-86
2021/05/03 09:06:20;;;;;;;1.83;0.70;;;10.60;99.90;;;;;;4997288;28;20029;-86
2021/05/03 09:09:00;;;;;;;3.33;1.20;;;10.80;99.90;;;;;;4991847;28;20105;-86
2021/05/03 09:11:26;;;;;;;3.22;1.88;;;11.10;99.90;;;;;;4992435;28;20033;-85
2021/05/03 09:13:51;;;;;;;3.85;1.30;;;11.00;99.90;;;;;;4994895;28;20022;-86
2021/05/03 09:16:22;;;;;;;1.73;0.82;;;10.80;99.90;;;;;;5003495;28;20084;-85
2021/05/03 09:18:49;;;;;;;4.03;1.10;;;10.90;99.90;;;;;;5014658;28;20022;-87
2021/05/03 09:21:19;;;;;;;3.38;1.10;;;10.50;99.90;;;;;;5014764;28;20032;-86
2021/05/03 09:24:15;;;;;;;6.57;1.50;;;9.90;99.90;;;;;;5015928;28;20126;-86
2021/05/03 09:26:46;;;;;;;11.00;1.40;;;9.10;99.90;;;;;;5013629;28;20037;-84
2021/05/03 09:29:34;;;;;;;6.97;1.70;;;8.20;99.90;;;;;;5014695;28;20097;-84
2021/05/03 09:32:21;;;;;;;3.22;1.58;;;7.50;99.90;;;;;;5015328;28;20049;-84
2021/05/03 09:34:52;;;;;;;6.53;1.77;;;7.20;99.90;;;;;;5013843;28;20051;-84
2021/05/03 09:37:31;;;;;;;4.68;1.80;;;7.20;99.90;;;;;;5014426;28;20037;-85
2021/05/03 09:39:57;;;;;;;11.65;1.75;;;7.10;99.90;;;;;;5014482;28;20541;-84
2021/05/03 09:42:24;;;;;;;7.90;1.95;;;7.00;99.90;;;;;;5015831;28;20463;-84
2021/05/03 09:45:29;;;;;;;3.95;2.13;;;7.00;99.90;;;;;;5013875;28;20018;-84
2021/05/03 09:47:57;;;;;;;5.10;2.08;;;7.30;99.90;;;;;;4994911;28;20031;-84
2021/05/03 09:50:25;;;;;;;6.00;1.35;;;7.70;99.90;;;;;;4998660;28;20160;-83
2021/05/03 09:53:10;;;;;;;6.38;1.75;;;7.80;99.90;;;;;;5013951;28;20101;-83
2021/05/03 09:55:44;;;;;;;5.80;1.65;;;7.90;99.90;;;;;;5012231;28;20076;-84
2021/05/03 09:58:10;;;;;;;5.85;1.33;;;8.10;99.90;;;;;;5012584;28;20026;-84
2021/05/03 10:00:38;;;;;;;41.75;25.23;;;8.20;99.90;;;;;;5013295;28;20386;-84
2021/05/03 10:03:28;;;;;;;11.85;3.53;;;8.10;99.90;;;;;;5013701;28;20059;-84
2021/05/03 10:05:54;;;;;;;5.85;2.17;;;8.20;99.90;;;;;;5006765;28;20064;-85
2021/05/03 10:08:19;;;;;;;5.10;1.73;;;8.60;99.90;;;;;;5014217;28;20109;-84
2021/05/03 10:10:49;;;;;;;5.57;2.25;;;9.10;99.90;;;;;;5013349;28;20501;-85
2021/05/03 10:13:15;;;;;;;4.65;1.60;;;9.50;99.90;;;;;;5013777;28;20053;-85
2021/05/03 10:15:41;;;;;;;7.75;1.90;;;9.90;99.90;;;;;;5013798;28;20069;-85
2021/05/03 10:18:07;;;;;;;12.55;8.57;;;10.00;99.90;;;;;;5013770;28;20018;-86
2021/05/03 10:20:33;;;;;;;8.00;4.72;;;9.70;99.90;;;;;;5013143;28;20364;-85
2021/05/03 10:22:58;;;;;;;16.77;8.98;;;9.30;99.90;;;;;;5013631;28;20029;-85
2021/05/03 10:25:24;;;;;;;12.85;5.32;;;9.10;99.90;;;;;;5013145;28;20030;-86
2021/05/03 10:27:52;;;;;;;3.15;1.95;;;8.90;99.90;;;;;;5013622;28;20433;-85
2021/05/03 10:30:21;;;;;;;2.30;1.45;;;9.20;99.90;;;;;;5013370;28;20065;-85
2021/05/03 10:33:05;;;;;;;5.30;2.30;;;9.70;99.90;;;;;;5013139;28;20030;-85
2021/05/03 10:35:33;;;;;;;2.60;1.30;;;10.40;99.90;;;;;;5012643;28;20022;-86
2021/05/03 10:37:59;;;;;;;1.70;1.15;;;10.80;99.90;;;;;;5013412;28;20018;-86
2021/05/03 10:40:26;;;;;;;3.40;1.17;;;11.10;99.90;;;;;;5013505;28;20022;-85
2021/05/03 10:43:09;;;;;;;7.07;3.10;;;11.20;99.90;;;;;;5012807;28;20029;-86
2021/05/03 10:46:50;;;;;;;1.35;1.17;;;11.20;99.90;;;;;;5011607;28;20512;-86
2021/05/03 10:52:02;;;;;;;7.68;4.30;;;11.10;99.90;;;;;;5012834;28;20497;-86
2021/05/03 10:54:36;;;;;;;10.63;8.75;;;11.10;99.90;;;;;;5013248;28;20052;-85
2021/05/03 10:57:15;;;;;;;1.63;1.05;;;11.30;99.90;;;;;;5012161;28;20116;-85
2021/05/03 10:59:49;;;;;;;3.25;0.93;;;11.60;99.90;;;;;;5014263;28;20026;-86
2021/05/03 11:02:19;;;;;;;3.20;0.98;;;11.80;99.90;;;;;;5013148;28;20525;-86
2021/05/03 11:05:26;;;;;;;3.17;1.10;;;12.00;99.90;;;;;;5012981;28;20029;-85
2021/05/03 11:08:15;;;;;;;2.50;1.10;;;11.80;99.90;;;;;;4993768;28;20514;-87
2021/05/03 11:11:03;;;;;;;14.40;10.38;;;12.00;99.90;;;;;;5008671;28;20030;-86
2021/05/03 11:13:44;;;;;;;1.63;1.27;;;12.10;99.90;;;;;;5012857;28;20394;-86
2021/05/03 11:16:25;;;;;;;4.75;2.33;;;12.00;99.90;;;;;;5012829;28;20017;-85
2021/05/03 11:18:52;;;;;;;7.25;6.55;;;11.80;99.90;;;;;;5011466;28;20021;-86
2021/05/03 11:21:19;;;;;;;2.50;1.63;;;12.00;99.90;;;;;;5012244;28;20018;-85
2021/05/03 11:23:46;;;;;;;2.20;1.40;;;11.30;99.90;;;;;;5012083;28;20034;-85
2021/05/03 11:26:30;;;;;;;3.60;1.50;;;10.90;99.90;;;;;;5012787;28;20026;-85
2021/05/03 11:29:11;;;;;;;5.75;2.35;;;11.10;99.90;;;;;;5011461;28;20034;-86
2021/05/03 11:31:37;;;;;;;6.50;3.05;;;10.70;99.90;;;;;;5012217;28;20029;-84
2021/05/03 11:34:12;;;;;;;2.20;0.95;;;11.00;99.90;;;;;;5011626;28;20601;-85
2021/05/03 11:36:43;;;;;;;6.72;1.42;;;11.40;99.90;;;;;;5012182;28;20057;-84
2021/05/03 11:44:40;;;;;;;6.95;1.70;;;11.00;99.90;;;;;;4990809;28;20037;-84
2021/05/03 11:47:06;;;;;;;2.13;1.45;;;11.20;99.90;;;;;;5012493;28;20026;-84
2021/05/03 11:49:42;;;;;;;3.30;1.35;;;10.50;99.90;;;;;;5012498;28;20072;-84
2021/05/03 11:52:07;;;;;;;5.32;2.13;;;10.00;99.90;;;;;;5011832;28;20030;-84
2021/05/03 11:54:38;;;;;;;2.60;1.42;;;10.10;99.90;;;;;;5011727;28;20026;-85
2021/05/03 11:57:17;;;;;;;2.70;1.40;;;10.50;99.90;;;;;;5012655;28;20022;-86
2021/05/03 11:59:44;;;;;;;3.72;1.70;;;10.60;99.90;;;;;;5012306;28;20022;-84
2021/05/03 12:02:11;;;;;;;4.60;2.28;;;10.70;99.90;;;;;;5011352;28;20390;-85
2021/05/03 12:04:45;;;;;;;1.67;1.25;;;10.90;99.90;;;;;;5011807;28;20057;-84
2021/05/03 12:07:15;;;;;;;6.75;1.15;;;11.20;99.90;;;;;;5012182;28;20030;-85
2021/05/03 12:09:42;;;;;;;5.60;3.17;;;11.60;99.90;;;;;;5012093;28;20106;-85
2021/05/03 12:12:08;;;;;;;1.85;0.95;;;12.10;99.90;;;;;;5011828;28;20562;-86
2021/05/03 12:14:44;;;;;;;2.28;1.30;;;12.30;99.90;;;;;;5011267;28;20113;-86
2021/05/03 12:17:20;;;;;;;8.73;5.35;;;12.50;99.90;;;;;;5011783;28;20113;-84
2021/05/03 12:19:47;;;;;;;11.68;1.95;;;12.80;99.90;;;;;;5012164;28;20027;-85
2021/05/03 12:22:13;;;;;;;6.40;3.15;;;13.30;99.90;;;;;;5014218;28;20022;-86
2021/05/03 12:24:42;;;;;;;4.03;1.50;;;13.20;99.90;;;;;;5015292;28;20029;-86
2021/05/03 12:27:08;;;;;;;18.63;10.18;;;13.60;99.90;;;;;;5015838;28;20041;-86
2021/05/03 12:29:36;;;;;;;9.13;4.65;;;13.70;99.90;;;;;;5015585;28;20486;-85
2021/05/03 12:32:01;;;;;;;25.90;11.00;;;13.60;99.90;;;;;;5014768;28;20036;-81
2021/05/03 12:34:27;;;;;;;4.47;2.88;;;13.60;99.90;;;;;;5014882;28;20097;-83
2021/05/03 12:37:11;;;;;;;2.88;1.33;;;13.40;99.90;;;;;;5010424;28;20034;-82
2021/05/03 12:39:41;;;;;;;11.45;1.63;;;13.40;99.90;;;;;;5015040;28;20026;-82
2021/05/03 12:42:14;;;;;;;1.65;1.20;;;13.80;99.90;;;;;;5015211;28;20033;-82
2021/05/03 12:44:55;;;;;;;5.10;1.50;;;14.20;99.90;;;;;;5014826;28;20026;-83
2021/05/03 12:47:46;;;;;;;4.63;1.42;;;13.70;99.90;;;;;;5014685;28;20022;-82
2021/05/03 12:50:26;;;;;;;15.25;2.15;;;12.60;99.90;;;;;;5015489;28;20494;-82
2021/05/03 12:53:14;;;;;;;6.03;1.63;;;11.60;99.90;;;;;;5014959;28;20054;-82
2021/05/03 12:58:18;;;;;;;4.45;2.15;;;11.60;99.90;;;;;;5014997;28;20034;-83
2021/05/03 13:00:55;;;;;;;5.85;2.13;;;11.80;99.90;;;;;;5015188;28;20026;-83
2021/05/03 13:03:33;;;;;;;5.13;1.80;;;12.90;99.90;;;;;;5015031;28;20105;-82
2021/05/03 13:06:15;;;;;;;6.65;1.60;;;13.40;99.90;;;;;;5014493;28;20018;-82
2021/05/03 13:11:53;;;;;;;;;;;12.50;99.90;;;;;;4995742;28;20041;-82
2021/05/03 13:29:13;;;;;;;4.90;2.28;;;13.00;99.90;;;;;;5002411;28;20044;-81
2021/05/03 13:31:41;;;;;;;4.38;2.70;;;12.90;99.90;;;;;;5003713;28;20518;-82
2021/05/03 13:34:09;;;;;;;12.88;3.30;;;12.60;99.90;;;;;;5002551;28;20029;-83
2021/05/03 13:36:36;;;;;;;9.38;3.05;;;13.30;99.90;;;;;;5000429;28;20030;-86
2021/05/03 13:39:08;;;;;;;4.93;3.00;;;13.60;99.90;;;;;;5006773;28;20034;-84
2021/05/03 13:41:35;;;;;;;9.57;3.35;;;13.90;99.90;;;;;;4998600;28;20072;-84
2021/05/03 13:44:01;;;;;;;5.70;2.42;;;14.20;99.90;;;;;;5003913;28;20049;-83